createdAt,value
2023-02-13T05:34:47.418Z,12.88
2023-02-13T05:40:41.993Z,12.85
2023-02-13T07:33:40.130Z,15.20
2023-02-13T07:36:07.306Z,15.70
2023-02-13T07:38:34.385Z,14.40
2023-02-13T07:41:02.301Z,13.77
2023-02-13T07:48:40.315Z,13.80
2023-02-13T07:51:07.202Z,13.35
2023-02-13T07:53:35.530Z,12.43
2023-02-13T07:56:09.750Z,13.10
2023-02-13T07:58:37.584Z,12.00
2023-02-13T08:01:12.421Z,11.90
2023-02-13T08:03:39.235Z,12.70
2023-02-13T08:06:07.719Z,11.77
2023-02-13T08:08:34.903Z,11.80
2023-02-13T08:11:38.462Z,8.87
2023-02-13T08:14:05.432Z,10.63
2023-02-13T08:16:34.624Z,10.32
2023-02-13T08:19:01.932Z,10.68
2023-02-13T08:21:33.142Z,10.68
2023-02-13T08:23:59.795Z,11.70
2023-02-13T08:26:26.771Z,10.70
2023-02-13T08:28:53.295Z,10.67
2023-02-13T08:31:20.489Z,11.20
2023-02-13T08:33:47.420Z,10.95
2023-02-13T08:36:13.974Z,11.40
2023-02-13T08:41:27.968Z,10.40
2023-02-13T08:43:55.355Z,11.07
2023-02-13T08:46:21.970Z,10.77
2023-02-13T08:48:51.387Z,10.50
2023-02-13T08:51:18.048Z,9.73
2023-02-13T08:53:44.751Z,8.88
2023-02-13T08:56:11.798Z,8.98
2023-02-13T08:58:39.086Z,9.77
2023-02-13T09:01:07.664Z,8.98
2023-02-13T09:03:35.109Z,9.20
2023-02-13T09:06:02.755Z,8.65
2023-02-13T09:08:29.756Z,9.30
2023-02-13T09:10:58.750Z,9.50
2023-02-13T09:13:25.987Z,8.30
2023-02-13T09:15:52.515Z,8.90
2023-02-13T09:18:19.299Z,8.98
2023-02-13T09:20:45.893Z,9.48
2023-02-13T09:23:12.600Z,8.10
2023-02-13T09:25:41.164Z,8.48
2023-02-13T09:28:07.896Z,6.85
2023-02-13T09:30:34.547Z,7.40
2023-02-13T09:33:01.392Z,9.32
2023-02-13T09:35:31.614Z,8.20
2023-02-13T09:38:00.627Z,8.68
2023-02-13T09:40:29.800Z,8.27
2023-02-13T09:43:07.374Z,9.13
2023-02-13T09:45:35.346Z,8.55
2023-02-13T09:48:02.285Z,8.77
2023-02-13T09:50:33.497Z,7.43
2023-02-13T09:53:00.775Z,8.75
2023-02-13T09:55:29.763Z,7.82
2023-02-13T09:58:16.528Z,7.43
2023-02-13T10:00:50.586Z,8.93
2023-02-13T10:03:32.443Z,8.40
2023-02-13T10:06:08.312Z,8.70
2023-02-13T10:09:06.869Z,9.23
2023-02-13T10:11:48.566Z,9.05
2023-02-13T10:14:17.901Z,8.55
2023-02-13T10:16:52.991Z,8.27
2023-02-13T10:19:41.899Z,6.70
2023-02-13T10:22:16.388Z,8.35
2023-02-13T10:25:23.424Z,6.40
2023-02-13T10:27:55.131Z,6.75
2023-02-13T10:30:27.024Z,8.15
2023-02-13T10:33:20.731Z,7.97
2023-02-13T10:36:27.600Z,6.43
2023-02-13T10:39:06.103Z,9.82
2023-02-13T10:41:47.768Z,7.78
2023-02-13T10:44:18.227Z,8.30
2023-02-13T10:47:04.238Z,7.97
2023-02-13T10:49:38.335Z,6.93
2023-02-13T10:52:27.776Z,7.57
2023-02-13T10:55:31.405Z,7.95
2023-02-13T10:58:07.913Z,6.28
2023-02-13T11:00:57.836Z,8.27
2023-02-13T11:03:29.618Z,7.13
2023-02-13T11:05:58.486Z,6.95
2023-02-13T11:08:49.322Z,7.10
2023-02-13T11:11:32.079Z,6.88
2023-02-13T11:14:12.980Z,7.43
2023-02-13T11:16:58.648Z,7.13
2023-02-13T11:19:48.602Z,5.97
2023-02-13T11:22:26.347Z,7.60
2023-02-13T11:24:56.473Z,6.80
2023-02-13T11:27:29.896Z,6.93
2023-02-13T11:29:59.607Z,7.00
2023-02-13T11:32:33.070Z,8.05
2023-02-13T11:35:27.135Z,7.55
2023-02-13T11:38:15.874Z,6.93
2023-02-13T11:40:46.086Z,6.40
2023-02-13T11:43:28.236Z,6.65
2023-02-13T11:46:16.493Z,7.90
2023-02-13T11:48:45.582Z,8.32
2023-02-13T11:51:14.839Z,5.80
2023-02-13T11:53:44.011Z,5.40
2023-02-13T11:56:15.831Z,5.63
2023-02-13T11:58:43.294Z,5.85
2023-02-13T12:01:20.085Z,6.05
2023-02-13T12:04:16.638Z,4.90
2023-02-13T12:07:00.163Z,5.50
2023-02-13T12:09:27.900Z,5.03
2023-02-13T12:12:02.516Z,4.25
2023-02-13T12:14:34.621Z,5.30
2023-02-13T12:17:06.459Z,5.05
2023-02-13T12:19:44.214Z,5.20
2023-02-13T12:22:23.228Z,4.97
2023-02-13T12:24:56.084Z,4.65
2023-02-13T12:27:42.950Z,4.57
2023-02-13T12:30:15.761Z,4.55
2023-02-13T12:32:42.310Z,4.93
2023-02-13T12:35:32.092Z,5.20
2023-02-13T12:38:04.374Z,4.90
2023-02-13T12:40:37.870Z,4.22
2023-02-13T12:43:35.350Z,4.43
2023-02-13T12:46:31.040Z,4.40
2023-02-13T12:49:22.898Z,3.83
2023-02-13T12:52:15.210Z,4.60
2023-02-13T12:54:51.072Z,5.50
2023-02-13T12:57:55.729Z,5.32
2023-02-13T13:00:34.593Z,3.60
2023-02-13T13:03:10.359Z,3.95
2023-02-13T13:05:58.729Z,3.38
2023-02-13T13:08:49.509Z,3.53
2023-02-13T13:11:56.855Z,3.50
2023-02-13T13:17:34.503Z,3.73
2023-02-13T13:20:19.802Z,3.58
2023-02-13T13:23:11.487Z,3.25
2023-02-13T13:26:04.939Z,3.22
2023-02-13T13:28:49.024Z,3.38
2023-02-13T13:31:17.839Z,3.55
2023-02-13T13:33:47.392Z,3.25
2023-02-13T13:36:34.160Z,3.20
2023-02-13T13:39:04.715Z,2.70
2023-02-13T13:42:02.729Z,3.15
2023-02-13T13:44:47.508Z,3.55
2023-02-13T13:47:53.504Z,4.82
2023-02-13T13:50:23.801Z,4.30
2023-02-13T13:53:18.542Z,3.70
2023-02-13T13:55:50.581Z,3.72
2023-02-13T13:58:43.315Z,2.67
2023-02-13T14:01:31.091Z,3.75
2023-02-13T14:04:33.016Z,2.03
2023-02-13T14:06:59.520Z,2.35
2023-02-13T14:09:41.728Z,2.20
2023-02-13T14:12:30.082Z,1.90
2023-02-13T14:14:58.149Z,2.08
2023-02-13T14:17:48.020Z,2.78
2023-02-13T14:20:44.484Z,2.00
2023-02-13T14:23:48.756Z,2.10
2023-02-13T14:26:15.433Z,2.05
2023-02-13T14:28:51.190Z,2.05
2023-02-13T14:31:23.569Z,1.80
2023-02-13T14:34:00.822Z,1.60
2023-02-13T14:39:04.880Z,1.80
2023-02-13T14:41:51.168Z,2.30
2023-02-13T14:44:43.675Z,2.00
2023-02-13T14:47:40.399Z,2.30
2023-02-13T14:50:13.351Z,2.10
2023-02-13T14:52:43.303Z,1.80
2023-02-13T14:55:29.421Z,1.58
2023-02-13T14:58:08.077Z,1.73
2023-02-13T15:00:52.670Z,1.85
2023-02-13T15:03:28.769Z,2.53
2023-02-13T15:06:01.264Z,1.70
2023-02-13T15:08:43.024Z,1.13
2023-02-13T15:11:30.193Z,1.60
2023-02-13T15:13:57.004Z,1.38
2023-02-13T15:16:23.801Z,1.40
2023-02-13T15:18:52.935Z,0.80
2023-02-13T15:21:24.607Z,0.80
2023-02-13T15:23:55.544Z,1.27
2023-02-13T15:26:26.679Z,1.00
2023-02-13T15:29:01.587Z,1.20
2023-02-13T15:31:33.631Z,1.20
2023-02-13T15:34:01.401Z,1.08
2023-02-13T15:36:41.104Z,1.52
2023-02-13T15:39:10.452Z,1.33
2023-02-13T15:41:47.641Z,1.02
2023-02-13T15:44:18.789Z,1.38
2023-02-13T15:46:48.315Z,0.80
2023-02-13T15:49:18.813Z,15.07
2023-02-13T15:51:46.264Z,1.60
2023-02-13T15:57:06.093Z,1.67
2023-02-13T15:59:38.697Z,2.42
2023-02-13T16:02:17.051Z,2.47
2023-02-13T16:04:44.087Z,2.55
2023-02-13T16:07:13.348Z,2.67
2023-02-13T16:09:40.042Z,2.20
2023-02-13T16:12:28.478Z,2.93
2023-02-13T16:15:05.894Z,2.83
2023-02-13T16:20:04.462Z,4.38
2023-02-13T16:22:42.982Z,2.92
2023-02-13T16:25:12.244Z,2.90
2023-02-13T16:27:54.758Z,3.75
2023-02-13T16:30:34.246Z,3.35
2023-02-13T16:33:16.256Z,7.65
2023-02-13T16:35:55.296Z,3.78
2023-02-13T16:38:38.791Z,2.03
2023-02-13T16:41:17.634Z,2.00
2023-02-13T16:44:06.113Z,2.08
2023-02-13T16:46:48.584Z,1.88
2023-02-13T16:49:19.149Z,2.00
2023-02-13T16:51:52.912Z,2.35
2023-02-13T16:54:27.909Z,2.20
2023-02-13T16:57:05.818Z,2.33
2023-02-13T16:59:50.877Z,2.63
2023-02-13T17:02:32.425Z,2.88
2023-02-13T17:05:15.116Z,28.75
2023-02-13T17:07:44.110Z,17.23
2023-02-13T17:10:29.130Z,2.30
2023-02-13T17:12:59.670Z,2.50
2023-02-13T17:15:28.454Z,2.20
2023-02-13T17:17:55.478Z,2.35
2023-02-13T17:20:36.351Z,2.50
2023-02-13T17:23:07.153Z,2.63
2023-02-13T17:25:36.209Z,2.30
2023-02-13T19:56:11.545Z,4.28
